Time;durP1;ratioP1;P1;durP2;ratioP2;P2;SDS_P1;SDS_P2;PMS_P1;PMS_P2;Temp;Humidity;BMP_temperature;BMP_pressure;BME280_temperature;BME280_humidity;BME280_pressure;Samples;Min_cycle;Max_cycle;Signal;HPM_P1;HPM_P2
2022/12/16 00:01:59;;;;;;;18.00;8.97;;;13.80;99.90;;;;;;5029140;28;20285;-79
2022/12/16 00:04:28;;;;;;;13.83;8.33;;;13.80;99.90;;;;;;5028670;28;20184;-78
2022/12/16 00:06:55;;;;;;;15.07;8.30;;;13.70;99.90;;;;;;5005079;28;20214;-79
2022/12/16 00:09:21;;;;;;;13.67;8.43;;;13.70;99.90;;;;;;5030244;28;20222;-78
2022/12/16 00:11:47;;;;;;;12.87;8.40;;;13.70;99.90;;;;;;5035434;28;20282;-79
2022/12/16 00:14:14;;;;;;;12.17;7.97;;;13.70;99.90;;;;;;5027472;28;20187;-78
2022/12/16 00:16:40;;;;;;;15.50;9.10;;;13.70;99.90;;;;;;5009045;28;20195;-79
2022/12/16 00:19:07;;;;;;;17.83;8.97;;;13.70;99.90;;;;;;5024795;28;20250;-78
2022/12/16 00:21:33;;;;;;;13.17;8.00;;;13.70;99.90;;;;;;5009734;28;20246;-78
2022/12/16 00:23:59;;;;;;;14.93;8.90;;;13.70;99.90;;;;;;5007923;28;20196;-78
2022/12/16 00:26:26;;;;;;;14.10;8.73;;;13.70;99.90;;;;;;5008246;28;20204;-79
2022/12/16 00:28:53;;;;;;;16.93;9.10;;;13.70;99.90;;;;;;5025888;28;20302;-78
2022/12/16 00:31:19;;;;;;;10.87;7.83;;;13.70;99.90;;;;;;5025355;28;20216;-79
2022/12/16 00:33:46;;;;;;;19.20;8.90;;;13.70;99.90;;;;;;5009440;28;20263;-78
2022/12/16 00:36:12;;;;;;;15.60;9.43;;;13.60;99.90;;;;;;5023087;28;20669;-78
2022/12/16 00:38:40;;;;;;;17.43;9.13;;;13.60;99.90;;;;;;5024497;28;20192;-79
2022/12/16 00:41:06;;;;;;;14.37;8.63;;;13.60;99.90;;;;;;5027420;28;20225;-79
2022/12/16 00:43:34;;;;;;;13.83;9.10;;;13.60;99.90;;;;;;5009251;28;20188;-79
2022/12/16 00:46:00;;;;;;;17.00;9.43;;;13.60;99.90;;;;;;5024810;28;20728;-78
2022/12/16 00:48:27;;;;;;;15.93;9.33;;;13.60;99.90;;;;;;5024149;28;20631;-79
2022/12/16 00:50:55;;;;;;;15.87;9.53;;;13.60;99.90;;;;;;5024000;28;20215;-79
2022/12/16 00:53:23;;;;;;;16.47;9.10;;;13.60;99.90;;;;;;5026382;28;20507;-79
2022/12/16 00:55:50;;;;;;;17.03;9.67;;;13.50;99.90;;;;;;5007060;28;20213;-79
2022/12/16 00:58:16;;;;;;;13.60;9.17;;;13.50;99.90;;;;;;5004800;28;20188;-78
2022/12/16 01:00:44;;;;;;;15.33;10.10;;;13.50;99.90;;;;;;5025146;28;20254;-78
2022/12/16 01:03:11;;;;;;;21.77;10.50;;;13.50;99.90;;;;;;5022588;28;20295;-78
2022/12/16 01:05:38;;;;;;;17.87;10.60;;;13.50;99.90;;;;;;5022103;28;20200;-78
2022/12/16 01:08:05;;;;;;;20.87;10.53;;;13.50;99.90;;;;;;5011406;28;20241;-78
2022/12/16 01:10:31;;;;;;;16.70;10.20;;;13.50;99.90;;;;;;5026204;28;20192;-78
2022/12/16 01:12:58;;;;;;;19.63;11.80;;;13.50;99.90;;;;;;5022222;28;20184;-78
2022/12/16 01:15:26;;;;;;;16.77;10.83;;;13.50;99.90;;;;;;5020915;28;20298;-78
2022/12/16 01:17:52;;;;;;;19.10;11.17;;;13.50;99.90;;;;;;5017040;28;20445;-78
2022/12/16 01:20:19;;;;;;;19.37;11.70;;;13.50;99.90;;;;;;5032180;28;20202;-78
2022/12/16 01:22:45;;;;;;;17.83;11.50;;;13.50;99.90;;;;;;5024622;28;20192;-78
2022/12/16 01:25:12;;;;;;;15.53;11.63;;;13.50;99.90;;;;;;5026172;28;20177;-77
2022/12/16 01:27:39;;;;;;;17.30;11.70;;;13.50;99.90;;;;;;5027327;28;20212;-78
2022/12/16 01:30:08;;;;;;;18.03;11.83;;;13.50;99.90;;;;;;5023888;28;20191;-78
2022/12/16 01:32:34;;;;;;;20.53;13.13;;;13.50;99.90;;;;;;5021681;28;20265;-78
2022/12/16 01:35:00;;;;;;;21.23;13.93;;;13.60;99.90;;;;;;5010295;28;20271;-78
2022/12/16 01:37:26;;;;;;;19.47;12.67;;;13.60;99.90;;;;;;5006527;28;20637;-78
2022/12/16 01:39:52;;;;;;;20.57;13.23;;;13.60;99.90;;;;;;5023554;28;20202;-78
2022/12/16 01:42:22;;;;;;;17.50;12.03;;;13.60;99.90;;;;;;5013665;28;20307;-78
2022/12/16 01:44:50;;;;;;;20.40;11.93;;;13.60;99.90;;;;;;5039730;28;20200;-78
2022/12/16 01:47:25;;;;;;;15.33;11.00;;;13.60;99.90;;;;;;5027312;28;20236;-78
2022/12/16 01:50:15;;;;;;;19.13;11.97;;;13.60;99.90;;;;;;5010574;28;20193;-78
2022/12/16 01:52:52;;;;;;;16.17;11.53;;;13.60;99.90;;;;;;5043715;28;20275;-78
2022/12/16 01:55:27;;;;;;;16.07;11.07;;;13.70;99.90;;;;;;5020803;28;20201;-78
2022/12/16 01:58:30;;;;;;;18.37;10.67;;;13.60;99.90;;;;;;5030920;28;20879;-78
2022/12/16 02:00:58;;;;;;;17.17;10.93;;;13.60;99.90;;;;;;5015992;28;20297;-78
2022/12/16 02:03:29;;;;;;;15.53;9.60;;;13.60;99.90;;;;;;5009826;28;20308;-78
2022/12/16 02:05:55;;;;;;;18.37;10.77;;;13.60;99.90;;;;;;5006080;28;20326;-78
2022/12/16 02:08:22;;;;;;;14.37;9.77;;;13.60;99.90;;;;;;5028547;28;20342;-78
2022/12/16 02:11:32;;;;;;;17.63;10.77;;;13.60;99.90;;;;;;5028487;28;20206;-78
2022/12/16 02:14:40;;;;;;;14.50;10.40;;;13.60;99.90;;;;;;5010921;28;20189;-78
2022/12/16 02:17:52;;;;;;;16.30;10.63;;;13.60;99.90;;;;;;5018547;28;20235;-78
2022/12/16 02:20:46;;;;;;;13.80;10.13;;;13.60;99.90;;;;;;5026901;28;20216;-78
2022/12/16 02:23:39;;;;;;;20.43;9.90;;;13.50;99.90;;;;;;5036019;28;20560;-78
2022/12/16 02:27:01;;;;;;;15.20;9.53;;;13.50;99.90;;;;;;5013084;28;20613;-79
2022/12/16 02:30:04;;;;;;;18.43;9.80;;;13.50;99.90;;;;;;4973569;28;20231;-78
2022/12/16 02:33:04;;;;;;;19.90;10.60;;;13.40;99.90;;;;;;5011490;28;20199;-77
2022/12/16 02:36:38;;;;;;;17.73;10.37;;;13.40;99.90;;;;;;5005281;28;20184;-77
2022/12/16 02:39:21;;;;;;;17.00;10.83;;;13.40;99.90;;;;;;5007990;28;20688;-77
2022/12/16 02:41:58;;;;;;;14.03;10.47;;;13.40;99.90;;;;;;5040655;28;20553;-78
2022/12/16 02:45:00;;;;;;;15.30;11.03;;;13.40;99.90;;;;;;5030740;28;20191;-78
2022/12/16 02:47:28;;;;;;;15.77;10.90;;;13.40;99.90;;;;;;5031940;28;20282;-77
2022/12/16 02:49:56;;;;;;;16.00;10.60;;;13.40;99.90;;;;;;5028311;28;20270;-77
2022/12/16 02:52:28;;;;;;;12.60;9.73;;;13.40;99.90;;;;;;5010022;28;20177;-78
2022/12/16 02:55:01;;;;;;;15.27;9.80;;;13.40;99.90;;;;;;5008580;28;20187;-77
2022/12/16 02:57:54;;;;;;;15.67;9.80;;;13.40;99.90;;;;;;5038146;28;20527;-78
2022/12/16 03:00:23;;;;;;;18.27;9.90;;;13.40;99.90;;;;;;5008557;28;20672;-78
2022/12/16 03:03:06;;;;;;;18.37;9.30;;;13.40;99.90;;;;;;5037057;28;20184;-78
2022/12/16 03:05:39;;;;;;;12.33;8.53;;;13.40;99.90;;;;;;5025936;28;20203;-78
2022/12/16 03:08:13;;;;;;;15.53;7.97;;;13.40;99.90;;;;;;5029735;28;20794;-78
2022/12/16 03:10:58;;;;;;;12.80;7.73;;;13.40;99.90;;;;;;5049081;28;20513;-78
2022/12/16 03:13:31;;;;;;;11.07;8.07;;;13.40;99.90;;;;;;5039134;28;20185;-78
2022/12/16 03:16:02;;;;;;;11.90;8.10;;;13.40;99.90;;;;;;5023966;28;20711;-78
2022/12/16 03:18:29;;;;;;;12.23;7.83;;;13.40;99.90;;;;;;5029817;28;20179;-78
2022/12/16 03:21:05;;;;;;;20.10;8.53;;;13.40;99.90;;;;;;5028800;28;20653;-78
2022/12/16 03:23:50;;;;;;;11.67;7.57;;;13.40;99.90;;;;;;5025889;28;20199;-78
2022/12/16 03:26:49;;;;;;;12.13;7.10;;;13.40;99.90;;;;;;5026267;28;20257;-78
2022/12/16 03:29:50;;;;;;;11.00;6.83;;;13.40;99.90;;;;;;5026806;28;20223;-78
2022/12/16 03:32:36;;;;;;;11.43;6.67;;;13.40;99.90;;;;;;5009438;28;20184;-78
2022/12/16 03:35:13;;;;;;;10.93;6.17;;;13.40;99.90;;;;;;5025173;28;20191;-78
2022/12/16 03:37:43;;;;;;;10.97;6.30;;;13.40;99.90;;;;;;5022888;28;20972;-78
2022/12/16 03:40:11;;;;;;;8.17;6.13;;;13.40;99.90;;;;;;5021362;28;20188;-78
2022/12/16 03:42:41;;;;;;;10.10;6.10;;;13.30;99.90;;;;;;5026875;28;20184;-78
2022/12/16 03:45:16;;;;;;;8.17;5.93;;;13.40;99.90;;;;;;5026028;28;20246;-78
2022/12/16 03:47:49;;;;;;;7.93;5.80;;;13.40;99.90;;;;;;5027772;28;20695;-78
2022/12/16 03:50:23;;;;;;;8.50;5.83;;;13.40;99.90;;;;;;5026776;28;20183;-78
2022/12/16 03:52:49;;;;;;;10.87;5.83;;;13.40;99.90;;;;;;5023365;28;20215;-78
2022/12/16 03:55:17;;;;;;;8.27;6.07;;;13.40;99.90;;;;;;5026414;28;20179;-78
2022/12/16 03:57:43;;;;;;;12.40;6.30;;;13.40;99.90;;;;;;5024444;28;20208;-78
2022/12/16 04:00:12;;;;;;;11.37;5.97;;;13.40;99.90;;;;;;5036414;28;20691;-78
2022/12/16 04:02:40;;;;;;;9.37;6.43;;;13.40;99.90;;;;;;5025336;28;20565;-78
2022/12/16 04:05:07;;;;;;;12.07;7.40;;;13.40;99.90;;;;;;5009752;28;20802;-78
2022/12/16 04:07:33;;;;;;;14.27;7.30;;;13.40;99.90;;;;;;5037442;28;20209;-78
2022/12/16 04:10:00;;;;;;;13.43;7.67;;;13.40;99.90;;;;;;5024738;28;20177;-78
2022/12/16 04:26:22;;;;;;;14.03;10.27;;;13.40;99.90;;;;;;5018311;28;20188;-78
2022/12/16 04:28:48;;;;;;;16.13;10.37;;;13.40;99.90;;;;;;5035448;28;20215;-78
2022/12/16 04:31:15;;;;;;;16.93;11.33;;;13.40;99.90;;;;;;5006883;28;20192;-78
